Aérodrome :
LOGIN :

S'inscrire | Disclaimer

   EN    FR    IT 

 










Légende :    VFR   VFR Marginal   IFR   IFR Intensif   IFR Très Intensif
Visi : 
Plafond : 
>= 8 km
>= 3000ft
5 à 8 km
1000 à 3000 ft
1500m à 5 km
500 à 1000 ft
800 à 1500m
200 à 500 ft
< 800m
< 200 ft
Symboles :   Orages  Brouillard  Fortes neiges  Fortes précipitations  Vent > 20 kt
SIGMETs :   Divers  Orages  Givrage  Turbulence  Onde Orograph.  Cendres Volcan.







- Altitude de l'aérodrome : 1197 ft
- Code IATA : SPM


ETAD - Spangdahlem Ab

DERNIER METAR :
  • 181856Z AUTO 07003KT 9999 CLR 00/M04 A3023 RMK AO2 SLP253 T10011037 TSNO $

METARs EXPIRÉS :
  • 181756Z AUTO 09003KT 9999 CLR 01/M03 A3023 RMK AO2 SLP253 T00061035 10043 20006 56004 TSNO $
  • 181656Z AUTO 09003KT 9999 CLR 02/M04 A3023 RMK AO2 SLP251 T00231036 TSNO $

TAF TAF ETAD
Valide du 18 à 19h jusqu'au 20 à 01h UTC


181910Z 1819/2001 10009KT 9999 SCT020 QNH3000INS TX03/1913Z TNM08/1904Z LAST NO AMDS AFT 1819 NEXT 1905
Pas de NOTAMs connus pour ce terrain.



MET'MAP, la Météo Aéronautique d'un coup d'oeil ! - Copyright ORBIFLY Décembre 2007 - Disclaimer

ORBIFLY MET'MAP TEAM :

Programmation & Développement : Alexandra Zaïnal
Conception & Développement : Baudouin d'Aumeries
Co-Programmation & Développement : Marc-Olivier Méhu
Soutien technique & logistique : Manuel Goepfert

Contact : metmap@orbifly.com




SOURCES & CREDITS :

   NOAA